Time,TemperatureF,DewpointF,PressureIn,WindDirection,WindDirectionDegrees,WindSpeedMPH,WindSpeedGustMPH,Humidity,HourlyPrecipIn,Conditions,Clouds,dailyrainin,SoftwareType,DateUTC
2013-04-02 00:02:00,25.0,8.0,-100.00,West,280,0.0,0.0,47,0.00,,,-99.99,,2013-04-02 05:02:00,
2013-04-02 00:12:00,25.0,8.0,-100.00,West,280,0.0,0.0,47,0.00,,,-99.99,,2013-04-02 05:12:00,
2013-04-02 00:43:00,21.0,8.0,-100.00,WNW,290,0.0,0.0,55,0.00,,,-99.99,,2013-04-02 05:43:00,
2013-04-02 00:52:00,21.0,8.0,-100.00,WNW,290,0.0,0.0,55,0.00,,,-99.99,,2013-04-02 05:52:00,
2013-04-02 01:02:00,21.0,8.0,-100.00,WNW,290,0.0,0.0,55,0.00,,,-99.99,,2013-04-02 06:02:00,
2013-04-02 01:12:00,21.0,8.0,-100.00,WNW,290,0.0,0.0,55,0.00,,,-99.99,,2013-04-02 06:12:00,
2013-04-02 01:21:00,21.0,10.0,-100.00,West,265,0.0,0.0,62,0.00,,,-99.99,,2013-04-02 06:21:00,
2013-04-02 01:22:00,21.0,8.0,-100.00,WNW,290,0.0,0.0,55,0.00,,,-99.99,,2013-04-02 06:22:00,
2013-04-02 01:42:00,21.0,10.0,-100.00,West,265,0.0,0.0,62,0.00,,,-99.99,,2013-04-02 06:42:00,
2013-04-02 01:52:00,21.0,10.0,-100.00,West,265,0.0,0.0,62,0.00,,,-99.99,,2013-04-02 06:52:00,
2013-04-02 02:02:00,21.0,10.0,-100.00,West,265,0.0,0.0,62,0.00,,,-99.99,,2013-04-02 07:02:00,
2013-04-02 02:12:00,21.0,10.0,-100.00,West,265,0.0,0.0,62,0.00,,,-99.99,,2013-04-02 07:12:00,
2013-04-02 02:22:00,20.0,11.0,-100.00,West,275,0.0,0.0,69,0.00,,,-99.99,,2013-04-02 07:22:00,
2013-04-02 02:43:00,20.0,11.0,-100.00,West,275,0.0,0.0,69,0.00,,,-99.99,,2013-04-02 07:43:00,
2013-04-02 02:53:00,20.0,11.0,-100.00,West,275,0.0,0.0,69,0.00,,,-99.99,,2013-04-02 07:53:00,
2013-04-02 03:02:00,20.0,11.0,-100.00,West,275,0.0,0.0,69,0.00,,,-99.99,,2013-04-02 08:02:00,
2013-04-02 03:13:00,20.0,11.0,-100.00,West,275,0.0,0.0,69,0.00,,,-99.99,,2013-04-02 08:13:00,
2013-04-02 03:21:00,20.0,13.0,-100.00,WNW,300,0.0,0.0,74,0.00,,,-99.99,,2013-04-02 08:21:00,
2013-04-02 03:43:00,20.0,13.0,-100.00,WNW,300,0.0,0.0,74,0.00,,,-99.99,,2013-04-02 08:43:00,
2013-04-02 03:52:00,20.0,13.0,-100.00,WNW,300,0.0,0.0,74,0.00,,,-99.99,,2013-04-02 08:52:00,
2013-04-02 04:02:00,20.0,13.0,-100.00,WNW,300,0.0,0.0,74,0.00,,,-99.99,,2013-04-02 09:02:00,
2013-04-02 04:12:00,20.0,13.0,-100.00,WNW,300,0.0,0.0,74,0.00,,,-99.99,,2013-04-02 09:12:00,
2013-04-02 04:22:00,20.0,14.0,-100.00,WNW,290,0.0,0.0,79,0.00,,,-99.99,,2013-04-02 09:22:00,
2013-04-02 04:43:00,20.0,14.0,-100.00,WNW,290,0.0,0.0,79,0.00,,,-99.99,,2013-04-02 09:43:00,
2013-04-02 04:53:00,20.0,14.0,-100.00,WNW,290,0.0,0.0,79,0.00,,,-99.99,,2013-04-02 09:53:00,
2013-04-02 05:03:00,20.0,14.0,-100.00,WNW,290,0.0,0.0,79,0.00,,,-99.99,,2013-04-02 10:03:00,
2013-04-02 05:13:00,20.0,14.0,-100.00,WNW,290,0.0,0.0,79,0.00,,,-99.99,,2013-04-02 10:13:00,
2013-04-02 05:22:00,19.0,15.0,-100.00,WNW,290,0.0,0.0,82,0.00,,,-99.99,,2013-04-02 10:22:00,
2013-04-02 05:43:00,19.0,15.0,-100.00,WNW,290,0.0,0.0,82,0.00,,,-99.99,,2013-04-02 10:43:00,
2013-04-02 05:53:00,19.0,15.0,-100.00,WNW,290,0.0,0.0,82,0.00,,,-99.99,,2013-04-02 10:53:00,
2013-04-02 06:02:00,19.0,15.0,-100.00,WNW,290,0.0,0.0,82,0.00,,,-99.99,,2013-04-02 11:02:00,
2013-04-02 06:12:00,19.0,15.0,-100.00,WNW,290,0.0,0.0,82,0.00,,,-99.99,,2013-04-02 11:12:00,
2013-04-02 06:21:00,18.0,15.0,-100.00,WNW,290,0.0,0.0,85,0.00,,,-99.99,,2013-04-02 11:21:00,
2013-04-02 06:43:00,18.0,15.0,-100.00,WNW,290,0.0,0.0,85,0.00,,,-99.99,,2013-04-02 11:43:00,
2013-04-02 06:53:00,18.0,15.0,-100.00,WNW,290,0.0,0.0,85,0.00,,,-99.99,,2013-04-02 11:53:00,
2013-04-02 07:02:00,18.0,15.0,-100.00,WNW,290,0.0,0.0,85,0.00,,,-99.99,,2013-04-02 12:02:00,
2013-04-02 07:12:00,18.0,15.0,-100.00,WNW,290,0.0,0.0,85,0.00,,,-99.99,,2013-04-02 12:12:00,
2013-04-02 07:22:00,22.0,18.0,-100.00,WNW,295,0.0,0.0,85,0.00,,,-99.99,,2013-04-02 12:22:00,
2013-04-02 07:42:00,22.0,18.0,-100.00,WNW,295,0.0,0.0,85,0.00,,,-99.99,,2013-04-02 12:42:00,
2013-04-02 07:53:00,22.0,18.0,-100.00,WNW,295,0.0,0.0,85,0.00,,,-99.99,,2013-04-02 12:53:00,
2013-04-02 08:02:00,22.0,18.0,-100.00,WNW,295,0.0,0.0,85,0.00,,,-99.99,,2013-04-02 13:02:00,
2013-04-02 08:12:00,22.0,18.0,-100.00,WNW,295,0.0,0.0,85,0.00,,,-99.99,,2013-04-02 13:12:00,
2013-04-02 08:21:00,25.0,17.0,-100.00,NW,305,0.0,0.0,74,0.00,,,-99.99,,2013-04-02 13:21:00,
2013-04-02 08:42:00,25.0,17.0,-100.00,NW,305,0.0,0.0,74,0.00,,,-99.99,,2013-04-02 13:42:00,
2013-04-02 08:52:00,25.0,17.0,-100.00,NW,305,0.0,0.0,74,0.00,,,-99.99,,2013-04-02 13:52:00,
2013-04-02 09:02:00,25.0,17.0,-100.00,NW,305,0.0,0.0,74,0.00,,,-99.99,,2013-04-02 14:02:00,
2013-04-02 09:12:00,25.0,17.0,-100.00,NW,305,0.0,0.0,74,0.00,,,-99.99,,2013-04-02 14:12:00,
2013-04-02 09:20:00,28.0,17.0,-100.00,West,280,0.0,0.0,63,0.00,,,-99.99,,2013-04-02 14:20:00,
2013-04-02 09:43:00,28.0,17.0,-100.00,West,280,0.0,0.0,63,0.00,,,-99.99,,2013-04-02 14:43:00,
2013-04-02 09:52:00,28.0,17.0,-100.00,West,280,0.0,0.0,63,0.00,,,-99.99,,2013-04-02 14:52:00,
2013-04-02 10:02:00,28.0,17.0,-100.00,West,280,0.0,0.0,63,0.00,,,-99.99,,2013-04-02 15:02:00,
2013-04-02 10:11:00,28.0,17.0,-100.00,West,280,0.0,0.0,63,0.00,,,-99.99,,2013-04-02 15:11:00,
2013-04-02 10:23:00,30.0,14.0,-100.00,NW,315,0.0,0.0,51,0.00,,,-99.99,,2013-04-02 15:23:00,
2013-04-02 10:43:00,30.0,14.0,-100.00,NW,315,0.0,0.0,51,0.00,,,-99.99,,2013-04-02 15:43:00,
2013-04-02 10:58:00,30.0,14.0,-100.00,NW,315,0.0,0.0,51,0.00,,,-99.99,,2013-04-02 15:58:00,
2013-04-02 11:04:00,30.0,14.0,-100.00,NW,315,0.0,0.0,51,0.00,,,-99.99,,2013-04-02 16:04:00,
2013-04-02 11:13:00,30.0,14.0,-100.00,NW,315,0.0,0.0,51,0.00,,,-99.99,,2013-04-02 16:13:00,
2013-04-02 11:22:00,32.0,14.0,-100.00,NW,305,0.0,0.0,47,0.00,,,-99.99,,2013-04-02 16:22:00,
2013-04-02 11:44:00,32.0,14.0,-100.00,NW,305,0.0,0.0,47,0.00,,,-99.99,,2013-04-02 16:44:00,
2013-04-02 11:53:00,32.0,14.0,-100.00,NW,305,0.0,0.0,47,0.00,,,-99.99,,2013-04-02 16:53:00,
2013-04-02 12:05:00,32.0,14.0,-100.00,NW,305,0.0,0.0,47,0.00,,,-99.99,,2013-04-02 17:05:00,
2013-04-02 12:13:00,32.0,14.0,-100.00,NW,305,0.0,0.0,47,0.00,,,-99.99,,2013-04-02 17:13:00,
2013-04-02 13:43:00,33.0,10.0,-100.00,NW,310,0.0,0.0,37,0.00,,,-99.99,,2013-04-02 18:43:00,
2013-04-02 13:57:00,33.0,10.0,-100.00,NW,310,0.0,0.0,37,0.00,,,-99.99,,2013-04-02 18:57:00,
2013-04-02 14:03:00,33.0,10.0,-100.00,NW,310,0.0,0.0,37,0.00,,,-99.99,,2013-04-02 19:03:00,
2013-04-02 14:13:00,33.0,10.0,-100.00,NW,310,0.0,0.0,37,0.00,,,-99.99,,2013-04-02 19:13:00,
2013-04-02 14:20:00,34.0,8.0,-100.00,NW,305,0.0,0.0,33,0.00,,,-99.99,,2013-04-02 19:20:00,
2013-04-02 14:22:00,33.0,10.0,-100.00,NW,310,0.0,0.0,37,0.00,,,-99.99,,2013-04-02 19:22:00,
2013-04-02 14:47:00,34.0,8.0,-100.00,NW,305,0.0,0.0,33,0.00,,,-99.99,,2013-04-02 19:47:00,
2013-04-02 14:57:00,34.0,8.0,-100.00,NW,305,0.0,0.0,33,0.00,,,-99.99,,2013-04-02 19:57:00,
2013-04-02 15:03:00,34.0,8.0,-100.00,NW,305,0.0,0.0,33,0.00,,,-99.99,,2013-04-02 20:03:00,
2013-04-02 15:13:00,34.0,8.0,-100.00,NW,305,0.0,0.0,33,0.00,,,-99.99,,2013-04-02 20:13:00,
2013-04-02 15:21:00,34.0,8.0,-100.00,NW,325,0.0,0.0,33,0.00,,,-99.99,,2013-04-02 20:21:00,
2013-04-02 15:44:00,34.0,8.0,-100.00,NW,325,0.0,0.0,33,0.00,,,-99.99,,2013-04-02 20:44:00,
2013-04-02 15:54:00,34.0,8.0,-100.00,NW,325,0.0,0.0,33,0.00,,,-99.99,,2013-04-02 20:54:00,
2013-04-02 16:04:00,34.0,8.0,-100.00,NW,325,0.0,0.0,33,0.00,,,-99.99,,2013-04-02 21:04:00,
2013-04-02 16:13:00,34.0,8.0,-100.00,NW,325,0.0,0.0,33,0.00,,,-99.99,,2013-04-02 21:13:00,
2013-04-02 16:20:00,34.0,9.0,-100.00,North,0,0.0,0.0,34,0.00,,,-99.99,,2013-04-02 21:20:00,
2013-04-02 16:44:00,34.0,9.0,-100.00,North,0,0.0,0.0,34,0.00,,,-99.99,,2013-04-02 21:44:00,
2013-04-02 16:55:00,34.0,9.0,-100.00,North,0,0.0,0.0,34,0.00,,,-99.99,,2013-04-02 21:55:00,
2013-04-02 17:04:00,34.0,9.0,-100.00,North,0,0.0,0.0,34,0.00,,,-99.99,,2013-04-02 22:04:00,
2013-04-02 18:22:00,33.0,8.0,-100.00,NNW,345,0.0,0.0,35,0.00,,,-99.99,,2013-04-02 23:22:00,
2013-04-02 18:43:00,33.0,8.0,-100.00,NNW,345,0.0,0.0,35,0.00,,,-99.99,,2013-04-02 23:43:00,
2013-04-02 18:54:00,33.0,8.0,-100.00,NNW,345,0.0,0.0,35,0.00,,,-99.99,,2013-04-02 23:54:00,
2013-04-02 19:04:00,33.0,8.0,-100.00,NNW,345,0.0,0.0,35,0.00,,,-99.99,,2013-04-03 00:04:00,
2013-04-02 19:13:00,33.0,8.0,-100.00,NNW,345,0.0,0.0,35,0.00,,,-99.99,,2013-04-03 00:13:00,
2013-04-02 19:47:00,31.0,9.0,-100.00,NNW,340,0.0,0.0,39,0.00,,,-99.99,,2013-04-03 00:47:00,
2013-04-02 20:03:00,31.0,9.0,-100.00,NNW,340,0.0,0.0,39,0.00,,,-99.99,,2013-04-03 01:03:00,
2013-04-02 20:12:00,31.0,9.0,-100.00,NNW,340,0.0,0.0,39,0.00,,,-99.99,,2013-04-03 01:12:00,
2013-04-02 20:21:00,29.0,9.0,-100.00,West,260,0.0,0.0,44,0.00,,,-99.99,,2013-04-03 01:21:00,
2013-04-02 20:22:00,31.0,9.0,-100.00,NNW,340,0.0,0.0,39,0.00,,,-99.99,,2013-04-03 01:22:00,
2013-04-02 20:43:00,29.0,9.0,-100.00,West,260,0.0,0.0,44,0.00,,,-99.99,,2013-04-03 01:43:00,
2013-04-02 20:53:00,29.0,9.0,-100.00,West,260,0.0,0.0,44,0.00,,,-99.99,,2013-04-03 01:53:00,
2013-04-02 21:03:00,29.0,9.0,-100.00,West,260,0.0,0.0,44,0.00,,,-99.99,,2013-04-03 02:03:00,
2013-04-02 21:13:00,29.0,9.0,-100.00,West,260,0.0,0.0,44,0.00,,,-99.99,,2013-04-03 02:13:00,
2013-04-02 21:20:00,27.0,9.0,-100.00,West,265,0.0,0.0,48,0.00,,,-99.99,,2013-04-03 02:20:00,
2013-04-02 21:44:00,27.0,9.0,-100.00,West,265,0.0,0.0,48,0.00,,,-99.99,,2013-04-03 02:44:00,
2013-04-02 21:53:00,27.0,9.0,-100.00,West,265,0.0,0.0,48,0.00,,,-99.99,,2013-04-03 02:53:00,
2013-04-02 22:05:00,27.0,9.0,-100.00,West,265,0.0,0.0,48,0.00,,,-99.99,,2013-04-03 03:05:00,
2013-04-02 22:13:00,27.0,9.0,-100.00,West,265,0.0,0.0,48,0.00,,,-99.99,,2013-04-03 03:13:00,
2013-04-02 23:22:00,24.0,13.0,-100.00,West,275,0.0,0.0,61,0.00,,,-99.99,,2013-04-03 04:22:00,
2013-04-02 23:43:00,24.0,13.0,-100.00,West,275,0.0,0.0,61,0.00,,,-99.99,,2013-04-03 04:43:00,
2013-04-02 23:53:00,24.0,13.0,-100.00,West,275,0.0,0.0,61,0.00,,,-99.99,,2013-04-03 04:53:00,